Time,TemperatureF,DewpointF,PressureIn,WindDirection,WindDirectionDegrees,WindSpeedMPH,WindSpeedGustMPH,Humidity,HourlyPrecipIn,Conditions,Clouds,dailyrainin,SoftwareType,DateUTC
2015-05-25 00:05:00,59.2,49.8,30.19,West,260,1.0,4.0,71,0.00,CLR,,0.00,WeatherDisplay:10.37,2015-05-25 04:05:00,
2015-05-25 00:15:00,59.0,49.6,30.19,WNW,296,1.0,6.0,71,0.00,CLR,,0.00,WeatherDisplay:10.37,2015-05-25 04:15:00,
2015-05-25 00:25:00,58.9,49.9,30.19,West,260,1.0,5.0,72,0.00,CLR,,0.00,WeatherDisplay:10.37,2015-05-25 04:25:00,
2015-05-25 00:35:00,58.7,49.7,30.19,WNW,287,1.0,4.0,72,0.00,CLR,,0.00,WeatherDisplay:10.37,2015-05-25 04:35:00,
2015-05-25 00:45:00,58.6,50.0,30.19,West,281,1.0,6.0,73,0.00,CLR,,0.00,WeatherDisplay:10.37,2015-05-25 04:45:00,
2015-05-25 00:55:00,58.4,49.8,30.19,WNW,297,1.0,4.0,73,0.00,CLR,,0.00,WeatherDisplay:10.37,2015-05-25 04:55:00,
2015-05-25 01:05:00,58.1,49.9,30.19,WNW,288,0.0,5.0,74,0.00,CLR,,0.00,WeatherDisplay:10.37,2015-05-25 05:05:00,
2015-05-25 01:15:00,57.7,49.9,30.19,WSW,248,1.0,4.0,75,0.00,CLR,,0.00,WeatherDisplay:10.37,2015-05-25 05:15:00,
2015-05-25 01:25:00,57.4,49.9,30.19,West,269,0.0,4.0,76,0.00,CLR,,0.00,WeatherDisplay:10.37,2015-05-25 05:25:00,
2015-05-25 01:35:00,57.1,49.9,30.19,WNW,290,1.0,4.0,77,0.00,CLR,,0.00,WeatherDisplay:10.37,2015-05-25 05:35:00,
2015-05-25 01:45:00,56.8,50.0,30.18,WNW,287,1.0,6.0,78,0.00,CLR,,0.00,WeatherDisplay:10.37,2015-05-25 05:45:00,
2015-05-25 01:55:00,56.4,49.6,30.18,West,266,0.0,3.0,78,0.00,CLR,,0.00,WeatherDisplay:10.37,2015-05-25 05:55:00,
2015-05-25 02:05:00,56.3,49.9,30.18,West,267,0.0,2.0,79,0.00,CLR,,0.00,WeatherDisplay:10.37,2015-05-25 06:05:00,
2015-05-25 02:15:00,56.0,49.9,30.18,West,268,0.0,2.0,80,0.00,CLR,,0.00,WeatherDisplay:10.37,2015-05-25 06:15:00,
2015-05-25 02:25:00,55.7,49.6,30.18,WNW,285,0.0,2.0,80,0.00,CLR,,0.00,WeatherDisplay:10.37,2015-05-25 06:25:00,
2015-05-25 02:35:00,55.5,49.8,30.18,WNW,288,0.0,2.0,81,0.00,CLR,,0.00,WeatherDisplay:10.37,2015-05-25 06:35:00,
2015-05-25 02:45:00,55.5,49.8,30.18,West,266,1.0,4.0,81,0.00,CLR,,0.00,WeatherDisplay:10.37,2015-05-25 06:45:00,
2015-05-25 02:55:00,55.5,49.8,30.18,West,271,2.0,5.0,81,0.00,CLR,,0.00,WeatherDisplay:10.37,2015-05-25 06:55:00,
2015-05-25 03:05:00,55.7,49.6,30.18,WNW,287,2.0,5.0,80,0.00,CLR,,0.00,WeatherDisplay:10.37,2015-05-25 07:05:00,
2015-05-25 03:15:00,55.4,49.7,30.18,WNW,288,1.0,4.0,81,0.00,CLR,,0.00,WeatherDisplay:10.37,2015-05-25 07:15:00,
2015-05-25 03:25:00,55.1,49.7,30.18,WNW,292,1.0,3.0,82,0.00,CLR,,0.00,WeatherDisplay:10.37,2015-05-25 07:25:00,
2015-05-25 03:35:00,54.8,49.4,30.18,West,273,1.0,2.0,82,0.00,CLR,,0.00,WeatherDisplay:10.37,2015-05-25 07:35:00,
2015-05-25 03:45:00,54.8,49.4,30.18,NW,309,2.0,3.0,82,0.00,CLR,,0.00,WeatherDisplay:10.37,2015-05-25 07:45:00,
2015-05-25 03:55:00,54.9,49.9,30.18,WNW,301,2.0,5.0,83,0.00,CLR,,0.00,WeatherDisplay:10.37,2015-05-25 07:55:00,
2015-05-25 04:05:00,55.1,49.7,30.18,West,281,1.0,5.0,82,0.00,CLR,,0.00,WeatherDisplay:10.37,2015-05-25 08:05:00,
2015-05-25 04:15:00,55.1,49.7,30.18,West,276,2.0,5.0,82,0.00,CLR,,0.00,WeatherDisplay:10.37,2015-05-25 08:15:00,
2015-05-25 04:35:00,55.0,49.6,30.18,WNW,285,2.0,5.0,82,0.00,CLR,,0.00,WeatherDisplay:10.37,2015-05-25 08:35:00,
2015-05-25 04:45:00,55.0,49.9,30.19,West,280,2.0,5.0,83,0.00,CLR,,0.00,WeatherDisplay:10.37,2015-05-25 08:45:00,
2015-05-25 04:55:00,54.8,49.7,30.19,West,280,2.0,4.0,83,0.00,CLR,,0.00,WeatherDisplay:10.37,2015-05-25 08:55:00,
2015-05-25 05:05:00,54.7,49.7,30.19,WNW,284,2.0,5.0,83,0.00,CLR,,0.00,WeatherDisplay:10.37,2015-05-25 09:05:00,
2015-05-25 05:15:00,54.5,49.4,30.19,West,268,2.0,5.0,83,0.00,CLR,,0.00,WeatherDisplay:10.37,2015-05-25 09:15:00,
2015-05-25 05:25:00,54.5,49.4,30.19,West,274,2.0,4.0,83,0.00,CLR,,0.00,WeatherDisplay:10.37,2015-05-25 09:25:00,
2015-05-25 05:35:00,54.3,49.6,30.20,West,277,1.0,3.0,84,0.00,CLR,,0.00,WeatherDisplay:10.37,2015-05-25 09:35:00,
2015-05-25 05:45:00,54.2,49.5,30.20,WSW,252,2.0,3.0,84,0.00,CLR,,0.00,WeatherDisplay:10.37,2015-05-25 09:45:00,
2015-05-25 06:05:00,54.7,50.0,30.20,WSW,257,1.0,3.0,84,0.00,CLR,,0.00,WeatherDisplay:10.37,2015-05-25 10:05:00,
2015-05-25 06:15:00,55.3,50.3,30.20,WSW,253,1.0,4.0,83,0.00,CLR,,0.00,WeatherDisplay:10.37,2015-05-25 10:15:00,
2015-05-25 06:25:00,56.2,50.5,30.20,WSW,256,1.0,3.0,81,0.00,CLR,,0.00,WeatherDisplay:10.37,2015-05-25 10:25:00,
2015-05-25 06:35:00,56.9,50.8,30.20,West,264,1.0,5.0,80,0.00,CLR,,0.00,WeatherDisplay:10.37,2015-05-25 10:35:00,
2015-05-25 06:45:00,57.2,50.7,30.20,WSW,249,1.0,2.0,79,0.00,CLR,,0.00,WeatherDisplay:10.37,2015-05-25 10:45:00,
2015-05-25 06:55:00,57.4,50.9,30.20,West,260,2.0,4.0,79,0.00,CLR,,0.00,WeatherDisplay:10.37,2015-05-25 10:55:00,
2015-05-25 07:05:00,57.6,51.1,30.21,West,262,0.0,2.0,79,0.00,CLR,,0.00,WeatherDisplay:10.37,2015-05-25 11:05:00,
2015-05-25 07:15:00,58.0,51.2,30.20,West,273,1.0,2.0,78,0.00,FEW,,0.00,WeatherDisplay:10.37,2015-05-25 11:15:00,
2015-05-25 07:25:00,58.6,51.4,30.20,WSW,248,1.0,3.0,77,0.00,FEW,,0.00,WeatherDisplay:10.37,2015-05-25 11:25:00,
2015-05-25 07:35:00,59.3,51.3,30.20,WSW,243,1.0,4.0,75,0.00,FEW,,0.00,WeatherDisplay:10.37,2015-05-25 11:35:00,
2015-05-25 07:45:00,59.8,51.9,30.20,West,263,1.0,4.0,75,0.00,FEW,,0.00,WeatherDisplay:10.37,2015-05-25 11:45:00,
2015-05-25 07:55:00,60.1,51.8,30.20,West,263,2.0,6.0,74,0.00,FEW,,0.00,WeatherDisplay:10.37,2015-05-25 11:55:00,
2015-05-25 08:05:00,60.4,52.1,30.20,WSW,255,0.0,6.0,74,0.00,FEW,,0.00,WeatherDisplay:10.37,2015-05-25 12:05:00,
2015-05-25 08:15:00,60.9,52.2,30.21,WSW,240,1.0,4.0,73,0.00,CLR,,0.00,WeatherDisplay:10.37,2015-05-25 12:15:00,
2015-05-25 08:25:00,61.4,52.7,30.21,WSW,254,1.0,3.0,73,0.00,CLR,,0.00,WeatherDisplay:10.37,2015-05-25 12:25:00,
2015-05-25 08:35:00,61.7,53.0,30.21,West,262,0.0,3.0,73,0.00,CLR,,0.00,WeatherDisplay:10.37,2015-05-25 12:35:00,
2015-05-25 08:45:00,62.4,53.2,30.21,SW,221,0.0,3.0,72,0.00,CLR,,0.00,WeatherDisplay:10.37,2015-05-25 12:45:00,
2015-05-25 09:05:00,63.5,53.5,30.21,SW,236,1.0,4.0,70,0.00,CLR,,0.00,WeatherDisplay:10.37,2015-05-25 13:05:00,
2015-05-25 09:15:00,64.0,53.6,30.21,SW,234,2.0,7.0,69,0.00,OVC,,0.00,WeatherDisplay:10.37,2015-05-25 13:15:00,
2015-05-25 09:25:00,64.6,53.8,30.21,West,266,2.0,7.0,68,0.00,OVC,,0.00,WeatherDisplay:10.37,2015-05-25 13:25:00,
2015-05-25 09:35:00,65.7,54.1,30.21,West,261,1.0,5.0,66,0.00,OVC,,0.00,WeatherDisplay:10.37,2015-05-25 13:35:00,
2015-05-25 09:45:00,67.2,55.0,30.21,West,263,1.0,4.0,65,0.00,OVC,,0.00,WeatherDisplay:10.37,2015-05-25 13:45:00,
2015-05-25 09:55:00,67.6,54.6,30.21,WSW,239,1.0,4.0,63,0.00,OVC,,0.00,WeatherDisplay:10.37,2015-05-25 13:55:00,
2015-05-25 10:05:00,67.3,54.2,30.21,WSW,243,1.0,3.0,63,0.00,OVC,,0.00,WeatherDisplay:10.37,2015-05-25 14:05:00,
2015-05-25 10:15:00,67.4,54.8,30.21,West,263,0.0,4.0,64,0.00,BKN,,0.00,WeatherDisplay:10.37,2015-05-25 14:15:00,
2015-05-25 10:25:00,67.7,55.1,30.21,WSW,244,1.0,4.0,64,0.00,BKN,,0.00,WeatherDisplay:10.37,2015-05-25 14:25:00,
2015-05-25 10:35:00,67.6,54.6,30.22,West,264,0.0,3.0,63,0.00,BKN,,0.00,WeatherDisplay:10.37,2015-05-25 14:35:00,
2015-05-25 10:45:00,67.4,53.9,30.22,West,263,1.0,3.0,62,0.00,BKN,,0.00,WeatherDisplay:10.37,2015-05-25 14:45:00,
2015-05-25 10:55:00,67.8,55.2,30.22,West,279,0.0,3.0,64,0.00,BKN,,0.00,WeatherDisplay:10.37,2015-05-25 14:55:00,
2015-05-25 11:05:00,68.4,53.5,30.21,West,271,1.0,4.0,59,0.00,BKN,,0.00,WeatherDisplay:10.37,2015-05-25 15:05:00,
2015-05-25 11:15:00,68.6,54.2,30.20,West,272,1.0,3.0,60,0.00,OVC,,0.00,WeatherDisplay:10.37,2015-05-25 15:15:00,
2015-05-25 11:25:00,68.7,54.3,30.20,WSW,257,1.0,5.0,60,0.00,OVC,,0.00,WeatherDisplay:10.37,2015-05-25 15:25:00,
2015-05-25 11:35:00,68.9,54.0,30.21,West,260,1.0,5.0,59,0.00,OVC,,0.00,WeatherDisplay:10.37,2015-05-25 15:35:00,
2015-05-25 11:45:00,69.2,54.3,30.20,West,276,0.0,4.0,59,0.00,OVC,,0.00,WeatherDisplay:10.37,2015-05-25 15:45:00,
2015-05-25 11:55:00,70.2,56.6,30.20,WSW,253,0.0,3.0,62,0.00,OVC,,0.00,WeatherDisplay:10.37,2015-05-25 15:55:00,
2015-05-25 12:05:00,70.6,56.9,30.20,SSW,201,2.0,5.0,62,0.00,OVC,,0.00,WeatherDisplay:10.37,2015-05-25 16:05:00,
2015-05-25 12:15:00,71.1,57.9,30.20,SSW,209,0.0,4.0,63,0.00,OVC,,0.00,WeatherDisplay:10.37,2015-05-25 16:15:00,
2015-05-25 12:25:00,71.6,57.9,30.20,SSW,196,1.0,6.0,62,0.00,OVC,,0.00,WeatherDisplay:10.37,2015-05-25 16:25:00,
2015-05-25 12:35:00,71.6,58.3,30.20,SW,223,0.0,5.0,63,0.00,OVC,,0.00,WeatherDisplay:10.37,2015-05-25 16:35:00,
2015-05-25 12:45:00,71.5,58.2,30.20,SSW,205,1.0,7.0,63,0.00,OVC,,0.00,WeatherDisplay:10.37,2015-05-25 16:45:00,
2015-05-25 12:55:00,72.0,57.8,30.20,SSW,195,1.0,6.0,61,0.00,OVC,,0.00,WeatherDisplay:10.37,2015-05-25 16:55:00,
2015-05-25 13:05:00,72.1,58.3,30.19,SW,227,0.0,7.0,62,0.00,OVC,,0.00,WeatherDisplay:10.37,2015-05-25 17:05:00,
2015-05-25 13:15:00,71.8,58.1,30.19,SW,217,2.0,9.0,62,0.00,OVC,,0.00,WeatherDisplay:10.37,2015-05-25 17:15:00,
2015-05-25 13:25:00,71.5,58.7,30.19,SSW,205,0.0,4.0,64,0.00,OVC,,0.00,WeatherDisplay:10.37,2015-05-25 17:25:00,
2015-05-25 13:35:00,71.8,58.5,30.18,SSW,198,1.0,10.0,63,0.00,OVC,,0.00,WeatherDisplay:10.37,2015-05-25 17:35:00,
2015-05-25 13:45:00,71.9,59.5,30.17,SW,229,2.0,10.0,65,0.00,OVC,,0.00,WeatherDisplay:10.37,2015-05-25 17:45:00,
2015-05-25 13:55:00,72.7,60.7,30.17,SW,224,0.0,6.0,66,0.00,OVC,,0.00,WeatherDisplay:10.37,2015-05-25 17:55:00,
2015-05-25 14:15:00,73.9,60.5,30.16,WSW,241,2.0,12.0,63,0.00,CLR,,0.00,WeatherDisplay:10.37,2015-05-25 18:15:00,
2015-05-25 14:25:00,74.0,60.6,30.16,SW,230,1.0,4.0,63,0.00,CLR,,0.00,WeatherDisplay:10.37,2015-05-25 18:25:00,
2015-05-25 14:45:00,75.1,61.2,30.16,SSW,194,1.0,7.0,62,0.00,CLR,,0.00,WeatherDisplay:10.37,2015-05-25 18:45:00,
2015-05-25 14:55:00,76.0,61.1,30.16,SSW,193,0.0,4.0,60,0.00,CLR,,0.00,WeatherDisplay:10.37,2015-05-25 18:55:00,
2015-05-25 15:05:00,76.9,61.5,30.14,SSW,212,1.0,7.0,59,0.00,CLR,,0.00,WeatherDisplay:10.37,2015-05-25 19:05:00,
2015-05-25 15:15:00,77.6,59.6,30.13,South,191,2.0,10.0,54,0.00,CLR,,0.00,WeatherDisplay:10.37,2015-05-25 19:15:00,
2015-05-25 15:25:00,78.2,58.6,30.13,SSW,200,3.0,12.0,51,0.00,CLR,,0.00,WeatherDisplay:10.37,2015-05-25 19:25:00,
2015-05-25 15:35:00,78.4,57.7,30.13,SW,230,2.0,12.0,49,0.00,CLR,,0.00,WeatherDisplay:10.37,2015-05-25 19:35:00,
2015-05-25 15:45:00,78.2,58.0,30.13,SW,218,3.0,7.0,50,0.00,CLR,,0.00,WeatherDisplay:10.37,2015-05-25 19:45:00,
2015-05-25 15:55:00,78.6,58.4,30.13,South,189,1.0,7.0,50,0.00,CLR,,0.00,WeatherDisplay:10.37,2015-05-25 19:55:00,
2015-05-25 16:05:00,78.4,58.2,30.12,SSW,204,2.0,12.0,50,0.00,CLR,,0.00,WeatherDisplay:10.37,2015-05-25 20:05:00,
2015-05-25 16:15:00,78.2,58.0,30.12,SSW,204,6.0,12.0,50,0.00,CLR,,0.00,WeatherDisplay:10.37,2015-05-25 20:15:00,
2015-05-25 16:25:00,77.8,58.8,30.12,SSW,201,5.0,12.0,52,0.00,CLR,,0.00,WeatherDisplay:10.37,2015-05-25 20:25:00,
2015-05-25 16:35:00,77.3,58.3,30.12,SSW,206,3.0,15.0,52,0.00,CLR,,0.00,WeatherDisplay:10.37,2015-05-25 20:35:00,
2015-05-25 16:45:00,76.7,58.3,30.12,SSW,209,2.0,13.0,53,0.00,CLR,,0.00,WeatherDisplay:10.37,2015-05-25 20:45:00,
2015-05-25 16:55:00,76.5,58.1,30.12,SSW,212,1.0,14.0,53,0.00,CLR,,0.00,WeatherDisplay:10.37,2015-05-25 20:55:00,
2015-05-25 17:05:00,76.7,58.3,30.12,SW,226,3.0,13.0,53,0.00,CLR,,0.00,WeatherDisplay:10.37,2015-05-25 21:05:00,
2015-05-25 17:15:00,77.6,57.5,30.11,SSW,213,6.0,15.0,50,0.00,CLR,,0.00,WeatherDisplay:10.37,2015-05-25 21:15:00,
2015-05-25 17:25:00,76.9,58.5,30.11,SW,220,5.0,12.0,53,0.00,CLR,,0.00,WeatherDisplay:10.37,2015-05-25 21:25:00,
2015-05-25 17:35:00,76.4,58.5,30.11,SSW,213,2.0,10.0,54,0.00,CLR,,0.00,WeatherDisplay:10.37,2015-05-25 21:35:00,
2015-05-25 17:45:00,75.8,58.0,30.11,SSW,209,2.0,12.0,54,0.00,CLR,,0.00,WeatherDisplay:10.37,2015-05-25 21:45:00,
2015-05-25 17:55:00,75.5,58.2,30.11,SW,215,2.0,13.0,55,0.00,CLR,,0.00,WeatherDisplay:10.37,2015-05-25 21:55:00,
2015-05-25 18:05:00,74.9,58.1,30.11,SSW,212,5.0,13.0,56,0.00,CLR,,0.00,WeatherDisplay:10.37,2015-05-25 22:05:00,
2015-05-25 18:15:00,74.8,58.1,30.11,South,187,3.0,10.0,56,0.00,CLR,,0.00,WeatherDisplay:10.37,2015-05-25 22:15:00,
2015-05-25 18:25:00,74.6,57.9,30.11,SSW,210,1.0,10.0,56,0.00,CLR,,0.00,WeatherDisplay:10.37,2015-05-25 22:25:00,
2015-05-25 18:35:00,74.4,57.2,30.11,SW,222,3.0,10.0,55,0.00,CLR,,0.00,WeatherDisplay:10.37,2015-05-25 22:35:00,
2015-05-25 18:45:00,74.2,57.5,30.11,SW,222,3.0,15.0,56,0.00,CLR,,0.00,WeatherDisplay:10.37,2015-05-25 22:45:00,
2015-05-25 19:05:00,73.0,57.3,30.11,SW,231,1.0,13.0,58,0.00,CLR,,0.00,WeatherDisplay:10.37,2015-05-25 23:05:00,
2015-05-25 19:15:00,72.3,57.2,30.11,SW,225,2.0,9.0,59,0.00,CLR,,0.00,WeatherDisplay:10.37,2015-05-25 23:15:00,
2015-05-25 19:25:00,71.8,56.7,30.11,SW,234,1.0,15.0,59,0.00,CLR,,0.00,WeatherDisplay:10.37,2015-05-25 23:25:00,
2015-05-25 19:35:00,71.5,55.5,30.11,WSW,242,3.0,12.0,57,0.00,CLR,,0.00,WeatherDisplay:10.37,2015-05-25 23:35:00,
2015-05-25 19:45:00,71.3,55.3,30.11,SW,224,2.0,9.0,57,0.00,CLR,,0.00,WeatherDisplay:10.37,2015-05-25 23:45:00,
2015-05-25 19:55:00,71.1,55.6,30.11,SSW,200,1.0,9.0,58,0.00,CLR,,0.00,WeatherDisplay:10.37,2015-05-25 23:55:00,
2015-05-25 20:05:00,70.8,55.3,30.10,SSW,210,1.0,6.0,58,0.00,CLR,,0.00,WeatherDisplay:10.37,2015-05-26 00:05:00,
2015-05-25 20:15:00,70.4,55.4,30.10,SW,228,1.0,9.0,59,0.00,CLR,,0.00,WeatherDisplay:10.37,2015-05-26 00:15:00,
2015-05-25 20:25:00,70.2,55.6,30.10,SW,232,1.0,10.0,60,0.00,CLR,,0.00,WeatherDisplay:10.37,2015-05-26 00:25:00,
2015-05-25 20:35:00,69.8,55.3,30.11,SW,221,1.0,7.0,60,0.00,CLR,,0.00,WeatherDisplay:10.37,2015-05-26 00:35:00,
2015-05-25 20:45:00,69.6,55.6,30.10,WSW,252,2.0,10.0,61,0.00,CLR,,0.00,WeatherDisplay:10.37,2015-05-26 00:45:00,
2015-05-25 20:55:00,69.2,56.1,30.10,SW,236,1.0,9.0,63,0.00,CLR,,0.00,WeatherDisplay:10.37,2015-05-26 00:55:00,
2015-05-25 21:05:00,69.1,56.4,30.10,West,281,3.0,12.0,64,0.00,CLR,,0.00,WeatherDisplay:10.37,2015-05-26 01:05:00,